Time;durP1;ratioP1;P1;durP2;ratioP2;P2;SDS_P1;SDS_P2;PMS_P1;PMS_P2;Temp;Humidity;BMP_temperature;BMP_pressure;BME280_temperature;BME280_humidity;BME280_pressure;Samples;Min_cycle;Max_cycle;Signal;HPM_P1;HPM_P2
2023/06/10 00:01:19;;;;;;;8.68;6.13;;;24.90;81.00;;;;;;4213667;28;20044;-60
2023/06/10 00:03:23;;;;;;;8.77;5.65;;;24.90;80.90;;;;;;4213502;28;20449;-61
2023/06/10 00:05:29;;;;;;;8.55;6.32;;;24.80;81.50;;;;;;4213589;28;20040;-62
2023/06/10 00:07:33;;;;;;;11.07;6.50;;;24.90;81.20;;;;;;4213525;28;20490;-62
2023/06/10 00:09:36;;;;;;;9.38;6.47;;;24.80;81.40;;;;;;4212819;28;20066;-62
2023/06/10 00:11:38;;;;;;;11.75;5.95;;;24.80;81.60;;;;;;4213648;28;20072;-62
2023/06/10 00:13:41;;;;;;;11.73;5.68;;;24.70;81.90;;;;;;4213109;28;20059;-61
2023/06/10 00:15:43;;;;;;;8.68;6.28;;;24.80;81.60;;;;;;4213537;28;20055;-62
2023/06/10 00:17:45;;;;;;;7.50;6.03;;;24.70;82.00;;;;;;4213514;28;20048;-62
2023/06/10 00:19:50;;;;;;;13.00;7.22;;;24.70;82.50;;;;;;4212668;28;20048;-62
2023/06/10 00:21:52;;;;;;;12.45;7.30;;;24.70;81.80;;;;;;4213574;28;20053;-62
2023/06/10 00:23:56;;;;;;;11.77;7.43;;;24.70;81.50;;;;;;4213686;28;20119;-62
2023/06/10 00:25:58;;;;;;;12.55;7.50;;;24.70;81.60;;;;;;4195606;28;20041;-61
2023/06/10 00:28:03;;;;;;;11.52;7.60;;;24.70;81.80;;;;;;4203736;28;20050;-61
2023/06/10 00:30:06;;;;;;;18.05;7.68;;;24.70;81.40;;;;;;4212478;28;20052;-61
2023/06/10 00:32:09;;;;;;;9.98;6.90;;;24.70;81.50;;;;;;4213382;28;20056;-62
2023/06/10 00:34:12;;;;;;;11.93;6.78;;;24.60;81.40;;;;;;4213271;28;20442;-61
2023/06/10 00:36:14;;;;;;;9.65;6.32;;;24.70;81.70;;;;;;4213579;28;20430;-61
2023/06/10 00:38:17;;;;;;;10.93;7.10;;;24.70;81.10;;;;;;4213454;28;20470;-60
2023/06/10 00:40:20;;;;;;;9.65;6.55;;;24.70;81.10;;;;;;4213054;28;20414;-66
2023/06/10 00:42:24;;;;;;;9.68;6.00;;;24.70;80.90;;;;;;4216454;28;20119;-64
2023/06/10 00:44:26;;;;;;;7.22;5.53;;;24.70;81.30;;;;;;4183365;28;20665;-64
2023/06/10 00:46:28;;;;;;;7.68;5.18;;;24.70;81.00;;;;;;4199559;28;20076;-62
2023/06/10 00:48:31;;;;;;;7.10;4.22;;;24.60;81.20;;;;;;4216849;28;20054;-63
2023/06/10 00:50:34;;;;;;;11.30;4.68;;;24.60;81.30;;;;;;4215890;28;20044;-62
2023/06/10 00:52:36;;;;;;;5.85;4.30;;;24.60;81.60;;;;;;4216242;28;20109;-61
2023/06/10 00:54:39;;;;;;;5.43;4.20;;;24.60;81.70;;;;;;4216331;28;20040;-62
2023/06/10 00:56:43;;;;;;;8.48;4.15;;;24.50;82.30;;;;;;4216348;28;20457;-62
2023/06/10 00:58:45;;;;;;;6.70;4.20;;;24.50;82.00;;;;;;4216299;28;20055;-62
2023/06/10 01:00:47;;;;;;;7.68;4.40;;;24.50;82.30;;;;;;4215018;28;20079;-63
2023/06/10 01:02:52;;;;;;;6.82;4.57;;;24.50;82.30;;;;;;4216531;28;20055;-62
2023/06/10 01:04:54;;;;;;;5.75;4.30;;;24.50;82.40;;;;;;4216175;28;20047;-62
2023/06/10 01:07:05;;;;;;;7.70;4.40;;;24.40;82.60;;;;;;4216221;28;20131;-61
2023/06/10 01:09:18;;;;;;;5.88;4.03;;;24.40;82.60;;;;;;4215571;28;20504;-63
2023/06/10 01:11:24;;;;;;;7.50;4.57;;;24.40;83.40;;;;;;4215779;28;20464;-62
2023/06/10 01:13:29;;;;;;;5.45;4.25;;;24.30;83.20;;;;;;4216058;28;20044;-62
2023/06/10 01:15:31;;;;;;;6.07;4.47;;;24.30;83.40;;;;;;4216026;28;20048;-62
2023/06/10 01:17:33;;;;;;;5.65;4.32;;;24.30;84.00;;;;;;4216074;28;20054;-62
2023/06/10 01:19:36;;;;;;;6.68;3.78;;;24.30;83.70;;;;;;4197008;28;20059;-61
2023/06/10 01:21:40;;;;;;;6.32;3.40;;;24.20;84.00;;;;;;4215795;28;20056;-62
2023/06/10 01:23:42;;;;;;;7.18;3.55;;;24.20;84.10;;;;;;4216007;28;20052;-60
2023/06/10 01:25:48;;;;;;;6.47;4.20;;;24.20;84.50;;;;;;4215893;28;20089;-60
2023/06/10 01:27:50;;;;;;;5.45;4.10;;;24.10;84.70;;;;;;4216055;28;20044;-63
2023/06/10 01:29:59;;;;;;;6.65;3.85;;;24.10;84.60;;;;;;4215095;28;20051;-63
2023/06/10 01:32:07;;;;;;;5.57;4.18;;;24.00;85.10;;;;;;4216104;28;20394;-61
2023/06/10 01:34:13;;;;;;;5.13;3.83;;;24.00;84.90;;;;;;4215704;28;20055;-62
2023/06/10 01:36:17;;;;;;;4.80;3.90;;;24.10;84.70;;;;;;4215844;28;20075;-59
2023/06/10 01:38:21;;;;;;;8.80;3.70;;;24.00;84.80;;;;;;4197874;28;20045;-59
2023/06/10 01:40:25;;;;;;;4.72;3.80;;;24.00;85.10;;;;;;4214369;28;20405;-59
2023/06/10 01:42:29;;;;;;;7.78;3.70;;;24.00;85.30;;;;;;4215817;28;20052;-60
2023/06/10 01:44:31;;;;;;;5.85;3.47;;;23.90;85.30;;;;;;4215415;28;20055;-60
2023/06/10 01:46:33;;;;;;;6.55;3.15;;;23.90;85.10;;;;;;4215460;28;20059;-62
2023/06/10 01:48:37;;;;;;;7.20;3.13;;;23.90;85.40;;;;;;4215398;28;20052;-61
2023/06/10 01:50:39;;;;;;;5.68;3.97;;;23.90;85.60;;;;;;4214616;28;20398;-59
2023/06/10 01:52:41;;;;;;;5.65;3.42;;;23.80;86.20;;;;;;4197516;28;20147;-60
2023/06/10 01:54:44;;;;;;;5.65;3.05;;;23.90;85.70;;;;;;4214444;28;20483;-60
2023/06/10 01:56:46;;;;;;;5.55;3.70;;;23.80;85.80;;;;;;4215572;28;20068;-61
2023/06/10 01:58:49;;;;;;;7.20;3.78;;;23.80;85.90;;;;;;4215535;28;20048;-60
2023/06/10 02:00:51;;;;;;;8.05;3.28;;;23.80;85.70;;;;;;4206530;28;20504;-60
2023/06/10 02:02:54;;;;;;;5.32;3.53;;;23.80;85.90;;;;;;4215553;28;20048;-60
2023/06/10 02:04:57;;;;;;;7.65;3.95;;;23.70;85.90;;;;;;4215157;28;20086;-60
2023/06/10 02:06:59;;;;;;;6.25;3.85;;;23.70;86.30;;;;;;4215361;28;20470;-60
2023/06/10 02:09:01;;;;;;;9.38;4.15;;;23.70;86.30;;;;;;4215002;28;20072;-60
2023/06/10 02:11:04;;;;;;;7.45;4.05;;;23.60;86.30;;;;;;4214303;28;20068;-60
2023/06/10 02:13:06;;;;;;;9.50;4.10;;;23.70;86.60;;;;;;4215023;28;20046;-59
2023/06/10 02:15:08;;;;;;;4.95;3.83;;;23.70;86.40;;;;;;4214880;28;20425;-60
2023/06/10 02:17:12;;;;;;;5.53;3.83;;;23.60;86.40;;;;;;4214924;28;20052;-60
2023/06/10 02:19:15;;;;;;;5.95;4.00;;;23.60;86.40;;;;;;4214909;28;20108;-59
2023/06/10 02:21:17;;;;;;;6.68;3.85;;;23.60;86.90;;;;;;4214307;28;20052;-60
2023/06/10 02:23:19;;;;;;;8.07;3.83;;;23.50;87.20;;;;;;4214798;28;20055;-60
2023/06/10 02:25:21;;;;;;;7.82;3.80;;;23.50;87.00;;;;;;4215100;28;20090;-60
2023/06/10 02:27:25;;;;;;;4.82;3.13;;;23.50;87.10;;;;;;4204988;28;20090;-60
2023/06/10 02:29:27;;;;;;;5.07;3.53;;;23.50;87.00;;;;;;4214358;28;20056;-61
2023/06/10 02:31:29;;;;;;;6.38;4.05;;;23.50;87.40;;;;;;4214668;28;20040;-60
2023/06/10 02:33:33;;;;;;;7.75;3.90;;;23.40;87.20;;;;;;4214642;28;20076;-60
2023/06/10 02:35:36;;;;;;;6.45;3.55;;;23.30;87.90;;;;;;4215277;28;20052;-60
2023/06/10 02:37:38;;;;;;;6.45;3.95;;;23.30;87.90;;;;;;4215656;28;20091;-68
2023/06/10 02:39:40;;;;;;;7.15;3.75;;;23.40;88.10;;;;;;4214991;28;20236;-61
2023/06/10 02:41:42;;;;;;;6.65;3.75;;;23.40;87.90;;;;;;4215508;28;20055;-60
2023/06/10 02:43:46;;;;;;;4.95;3.55;;;23.30;87.90;;;;;;4214689;28;20398;-60
2023/06/10 02:45:48;;;;;;;6.70;3.95;;;23.30;88.20;;;;;;4214591;28;20048;-60
2023/06/10 02:47:50;;;;;;;8.10;3.53;;;23.20;88.30;;;;;;4214324;28;20048;-60
2023/06/10 02:49:52;;;;;;;5.75;3.67;;;23.20;88.50;;;;;;4213886;28;20101;-61
2023/06/10 02:51:54;;;;;;;5.63;3.80;;;23.30;88.50;;;;;;4213966;28;20052;-60
2023/06/10 02:53:56;;;;;;;5.15;4.05;;;23.20;88.60;;;;;;4214676;28;20052;-59
2023/06/10 02:55:58;;;;;;;6.78;3.40;;;23.20;88.80;;;;;;4214682;28;20375;-60
2023/06/10 02:58:00;;;;;;;6.88;3.78;;;23.20;89.20;;;;;;4196575;28;20048;-60
2023/06/10 03:00:09;;;;;;;8.50;3.90;;;23.10;89.10;;;;;;4213283;28;20089;-60
2023/06/10 03:02:11;;;;;;;6.28;3.60;;;23.10;89.20;;;;;;4214730;28;20561;-59
2023/06/10 03:04:14;;;;;;;10.90;3.85;;;23.10;89.60;;;;;;4214434;28;20382;-61
2023/06/10 03:06:17;;;;;;;5.25;3.40;;;23.10;89.50;;;;;;4213786;28;20044;-61
2023/06/10 03:08:19;;;;;;;6.22;3.83;;;23.10;89.30;;;;;;4214202;28;20387;-60
2023/06/10 03:10:22;;;;;;;6.55;3.35;;;22.90;89.70;;;;;;4213401;28;20044;-59
2023/06/10 03:12:24;;;;;;;4.07;3.17;;;23.00;89.70;;;;;;4214550;28;20442;-60
2023/06/10 03:14:26;;;;;;;4.13;2.97;;;23.00;89.40;;;;;;4214417;28;20052;-60
2023/06/10 03:16:32;;;;;;;6.32;3.80;;;23.00;90.00;;;;;;4214129;28;20078;-63
2023/06/10 03:18:34;;;;;;;6.75;3.35;;;22.90;89.70;;;;;;4214181;28;20048;-59
2023/06/10 03:20:37;;;;;;;6.68;3.88;;;22.90;90.00;;;;;;4212729;28;20490;-59
2023/06/10 03:22:39;;;;;;;4.47;3.38;;;22.90;89.60;;;;;;4214257;28;20054;-59
2023/06/10 03:24:43;;;;;;;6.35;4.10;;;22.90;89.80;;;;;;4214339;28;20138;-59
2023/06/10 03:26:46;;;;;;;7.50;3.17;;;22.90;89.90;;;;;;4207824;28;20040;-60
2023/06/10 03:28:48;;;;;;;5.10;3.38;;;22.80;89.70;;;;;;4210847;28;20044;-62
2023/06/10 03:30:51;;;;;;;5.40;3.38;;;22.90;89.80;;;;;;4212991;28;20044;-61
2023/06/10 03:32:55;;;;;;;5.60;3.45;;;22.80;90.00;;;;;;4213903;28;20044;-60
2023/06/10 03:34:57;;;;;;;7.75;3.60;;;22.80;89.80;;;;;;4213556;28;20170;-61
2023/06/10 03:37:00;;;;;;;9.20;3.85;;;22.80;90.00;;;;;;4214049;28;20048;-60
2023/06/10 03:39:02;;;;;;;5.32;3.53;;;22.70;90.00;;;;;;4213979;28;20106;-60
2023/06/10 03:41:04;;;;;;;6.32;3.92;;;22.70;90.20;;;;;;4212682;28;20059;-60
2023/06/10 03:43:06;;;;;;;4.90;3.67;;;22.70;90.20;;;;;;4213835;28;20047;-60
2023/06/10 03:45:09;;;;;;;5.75;3.55;;;22.70;90.30;;;;;;4213788;28;20044;-60
2023/06/10 03:47:12;;;;;;;7.28;3.80;;;22.70;90.10;;;;;;4213835;28;20048;-63
2023/06/10 03:49:17;;;;;;;7.40;3.72;;;22.70;90.30;;;;;;4213823;28;20048;-63
2023/06/10 03:51:19;;;;;;;5.78;3.40;;;22.60;90.30;;;;;;4212165;28;20098;-63
2023/06/10 03:53:21;;;;;;;5.70;3.80;;;22.50;90.50;;;;;;4213872;28;20072;-63
2023/06/10 03:55:23;;;;;;;4.70;3.40;;;22.50;90.40;;;;;;4213541;28;20055;-60
2023/06/10 03:57:25;;;;;;;4.70;3.63;;;22.50;90.40;;;;;;4213667;28;20123;-61
2023/06/10 03:59:28;;;;;;;8.00;3.63;;;22.60;90.40;;;;;;4213594;28;20119;-63
2023/06/10 04:01:31;;;;;;;5.07;3.63;;;22.60;90.30;;;;;;4212623;28;20044;-62
2023/06/10 04:03:33;;;;;;;5.38;3.40;;;22.60;90.40;;;;;;4213585;28;20044;-62
2023/06/10 04:05:38;;;;;;;9.05;3.45;;;22.50;90.50;;;;;;4213192;28;20067;-62
2023/06/10 04:07:42;;;;;;;7.65;3.85;;;22.60;90.20;;;;;;4213652;28;20043;-62
2023/06/10 04:09:44;;;;;;;8.82;3.72;;;22.50;90.40;;;;;;4213361;28;20071;-63
2023/06/10 04:11:48;;;;;;;6.35;3.40;;;22.50;90.30;;;;;;4213469;28;20079;-62
2023/06/10 04:13:50;;;;;;;5.95;3.75;;;22.50;90.40;;;;;;4213469;28;20117;-63
2023/06/10 04:15:54;;;;;;;9.23;3.65;;;22.50;90.40;;;;;;4213357;28;20080;-63
2023/06/10 04:17:56;;;;;;;7.50;3.17;;;22.40;90.40;;;;;;4216050;28;20461;-62
2023/06/10 04:19:58;;;;;;;6.85;3.47;;;22.40;90.40;;;;;;4215898;28;20044;-64
2023/06/10 04:22:03;;;;;;;10.10;3.50;;;22.40;90.50;;;;;;4216874;28;20056;-63
2023/06/10 04:24:06;;;;;;;8.65;3.38;;;22.40;90.50;;;;;;4216962;28;20064;-62
2023/06/10 04:26:08;;;;;;;7.28;3.28;;;22.40;90.40;;;;;;4215450;28;20123;-62
2023/06/10 04:28:10;;;;;;;5.57;3.30;;;22.40;90.50;;;;;;4208678;28;20583;-60
2023/06/10 04:30:13;;;;;;;3.53;2.80;;;22.40;90.40;;;;;;4215904;28;20058;-60
2023/06/10 04:32:16;;;;;;;5.65;2.95;;;22.40;90.40;;;;;;4216891;28;20048;-62
2023/06/10 04:34:18;;;;;;;8.48;3.50;;;22.40;90.60;;;;;;4216654;28;20126;-60
2023/06/10 04:36:20;;;;;;;7.07;3.55;;;22.40;90.50;;;;;;4217202;28;20044;-62
2023/06/10 04:38:23;;;;;;;8.18;3.30;;;22.30;90.60;;;;;;4216940;28;20054;-62
2023/06/10 04:40:26;;;;;;;3.17;2.88;;;22.40;90.60;;;;;;4215848;28;20055;-63
2023/06/10 04:42:28;;;;;;;8.30;3.67;;;22.30;90.70;;;;;;4198803;28;20053;-63
2023/06/10 04:44:30;;;;;;;11.23;3.05;;;22.40;90.90;;;;;;4216429;28;20055;-60
2023/06/10 04:46:33;;;;;;;5.40;2.95;;;22.40;90.60;;;;;;4216721;28;20477;-62
2023/06/10 04:48:35;;;;;;;4.63;3.20;;;22.40;90.80;;;;;;4216242;28;20150;-62
2023/06/10 04:50:38;;;;;;;7.40;3.75;;;22.40;90.80;;;;;;4215613;28;20419;-62
2023/06/10 04:52:41;;;;;;;5.63;3.47;;;22.40;90.70;;;;;;4216291;28;20040;-62
2023/06/10 04:54:44;;;;;;;8.82;3.15;;;22.40;90.90;;;;;;4216377;28;20076;-62
2023/06/10 04:56:47;;;;;;;5.60;2.80;;;22.40;90.90;;;;;;4216350;28;20076;-61
2023/06/10 04:58:49;;;;;;;9.15;3.20;;;22.40;90.80;;;;;;4216328;28;20056;-60
2023/06/10 05:00:51;;;;;;;9.98;3.47;;;22.40;90.80;;;;;;4215034;28;20508;-59
2023/06/10 05:02:53;;;;;;;4.50;3.25;;;22.40;90.80;;;;;;4216159;28;20138;-59
2023/06/10 05:04:57;;;;;;;7.93;3.78;;;22.40;90.90;;;;;;4216272;28;20448;-59
2023/06/10 05:06:59;;;;;;;7.45;3.55;;;22.40;90.90;;;;;;4216039;28;20139;-61
2023/06/10 05:09:02;;;;;;;5.75;3.17;;;22.30;91.00;;;;;;4216076;28;20048;-62
2023/06/10 05:11:06;;;;;;;5.95;3.40;;;22.40;91.10;;;;;;4215075;28;20052;-62
2023/06/10 05:13:08;;;;;;;7.65;3.28;;;22.50;91.00;;;;;;4216335;28;20193;-62
2023/06/10 05:15:11;;;;;;;4.68;3.03;;;22.50;90.90;;;;;;4216211;28;20044;-62
2023/06/10 05:17:13;;;;;;;7.40;3.60;;;22.50;90.90;;;;;;4215747;28;20052;-62
2023/06/10 05:19:19;;;;;;;5.25;3.10;;;22.30;91.10;;;;;;4216106;28;20040;-61
2023/06/10 05:21:21;;;;;;;4.18;3.25;;;22.40;91.20;;;;;;4215201;28;20048;-62
2023/06/10 05:23:23;;;;;;;6.28;3.50;;;22.40;91.20;;;;;;4215792;28;20048;-62
2023/06/10 05:25:26;;;;;;;6.82;3.78;;;22.40;91.20;;;;;;4215758;28;20070;-61
2023/06/10 05:27:29;;;;;;;5.18;3.53;;;22.50;91.20;;;;;;4205895;28;20068;-63
2023/06/10 05:29:31;;;;;;;5.25;3.20;;;22.50;91.20;;;;;;4214600;28;20173;-61
2023/06/10 05:31:33;;;;;;;7.10;3.40;;;22.50;91.10;;;;;;4214380;28;20040;-62
2023/06/10 05:33:35;;;;;;;5.05;3.10;;;22.60;91.10;;;;;;4215768;28;20040;-62
2023/06/10 05:35:37;;;;;;;6.40;3.20;;;22.70;91.00;;;;;;4197726;28;20140;-61
2023/06/10 05:37:39;;;;;;;5.35;3.47;;;22.70;91.00;;;;;;4215590;28;20054;-62
2023/06/10 05:39:41;;;;;;;5.47;2.83;;;22.70;91.20;;;;;;4215797;28;20448;-61
2023/06/10 05:41:43;;;;;;;7.43;3.60;;;22.60;91.10;;;;;;4214735;28;20118;-61
2023/06/10 05:43:47;;;;;;;6.28;3.40;;;22.70;91.20;;;;;;4215458;28;20109;-61
2023/06/10 05:45:49;;;;;;;4.80;3.00;;;22.70;91.10;;;;;;4215138;28;20048;-62
2023/06/10 05:47:51;;;;;;;8.75;3.45;;;22.70;91.10;;;;;;4197675;28;20041;-61
2023/06/10 05:49:53;;;;;;;12.90;3.67;;;22.80;91.10;;;;;;4215579;28;20043;-61
2023/06/10 05:51:57;;;;;;;7.95;3.40;;;22.80;91.10;;;;;;4214599;28;20348;-61
2023/06/10 05:53:59;;;;;;;5.88;3.13;;;22.80;91.10;;;;;;4215637;28;20047;-61
2023/06/10 05:56:01;;;;;;;5.95;3.00;;;22.90;91.00;;;;;;4215722;28;20044;-59
2023/06/10 05:58:03;;;;;;;6.15;3.13;;;22.90;91.00;;;;;;4215917;28;20052;-59
2023/06/10 06:00:09;;;;;;;8.65;3.42;;;22.80;91.10;;;;;;4196517;28;20516;-64
2023/06/10 06:02:11;;;;;;;5.25;3.45;;;22.80;91.10;;;;;;4215097;28;20413;-62
2023/06/10 06:04:13;;;;;;;7.35;3.28;;;22.80;90.90;;;;;;4215224;28;20047;-62
2023/06/10 06:06:15;;;;;;;8.52;3.33;;;22.80;91.00;;;;;;4215457;28;20058;-62
2023/06/10 06:08:18;;;;;;;5.35;3.42;;;22.90;90.90;;;;;;4215205;28;20119;-63
2023/06/10 06:10:20;;;;;;;7.30;4.20;;;23.00;91.00;;;;;;4214588;28;20044;-62
2023/06/10 06:12:22;;;;;;;6.00;3.40;;;22.90;90.90;;;;;;4214910;28;20123;-60
2023/06/10 06:14:24;;;;;;;9.07;3.63;;;22.90;91.10;;;;;;4214920;28;20084;-58
2023/06/10 06:16:28;;;;;;;9.50;3.63;;;22.90;91.00;;;;;;4215411;28;20043;-60
2023/06/10 06:18:30;;;;;;;7.15;3.58;;;22.90;91.10;;;;;;4215182;28;20105;-62
2023/06/10 06:20:32;;;;;;;7.20;3.47;;;22.90;91.10;;;;;;4214057;28;20482;-63
2023/06/10 06:22:34;;;;;;;6.75;3.65;;;23.00;91.20;;;;;;4214807;28;20081;-62
2023/06/10 06:24:36;;;;;;;6.93;3.53;;;23.10;91.10;;;;;;4215176;28;20044;-63
2023/06/10 06:26:38;;;;;;;6.35;4.18;;;23.10;91.10;;;;;;4209537;28;20094;-60
2023/06/10 06:28:40;;;;;;;5.35;3.17;;;23.20;91.00;;;;;;4211381;28;20119;-63
2023/06/10 06:30:43;;;;;;;7.85;3.22;;;23.20;91.10;;;;;;4215272;28;20101;-65
2023/06/10 06:32:46;;;;;;;7.57;3.40;;;23.10;91.30;;;;;;4215713;28;20059;-64
2023/06/10 06:34:53;;;;;;;6.45;3.28;;;23.20;91.30;;;;;;4215909;28;20109;-61
2023/06/10 06:36:56;;;;;;;6.70;3.47;;;23.30;91.20;;;;;;4214952;28;20439;-61
2023/06/10 06:38:58;;;;;;;4.40;3.00;;;23.40;91.10;;;;;;4197227;28;20068;-60
2023/06/10 06:41:02;;;;;;;10.73;3.22;;;23.40;91.10;;;;;;4213727;28;20079;-59
2023/06/10 06:43:05;;;;;;;5.95;3.40;;;23.50;91.00;;;;;;4214624;28;20044;-60
2023/06/10 06:45:08;;;;;;;8.38;3.78;;;23.50;91.00;;;;;;4214699;28;20040;-63
2023/06/10 06:47:10;;;;;;;8.55;3.00;;;23.60;90.90;;;;;;4214852;28;20047;-63
2023/06/10 06:49:14;;;;;;;4.70;3.00;;;23.80;91.00;;;;;;4214756;28;20048;-59
2023/06/10 06:51:16;;;;;;;5.93;3.50;;;23.90;90.90;;;;;;4213854;28;20387;-60
2023/06/10 06:53:18;;;;;;;6.47;3.38;;;23.90;90.90;;;;;;4214696;28;20449;-62
2023/06/10 06:55:20;;;;;;;4.88;3.17;;;24.00;90.80;;;;;;4214947;28;20082;-62
2023/06/10 06:57:23;;;;;;;5.85;3.20;;;24.10;90.90;;;;;;4214549;28;20051;-60
2023/06/10 06:59:25;;;;;;;4.35;3.28;;;24.30;90.70;;;;;;4214176;28;20405;-59
2023/06/10 07:01:27;;;;;;;6.20;3.17;;;24.50;90.50;;;;;;4213621;28;20047;-60
2023/06/10 07:03:29;;;;;;;9.20;3.05;;;24.40;90.60;;;;;;4214599;28;20502;-60
2023/06/10 07:05:33;;;;;;;7.05;3.22;;;24.40;90.50;;;;;;4214542;28;20405;-60
2023/06/10 07:07:35;;;;;;;4.38;3.05;;;24.30;90.80;;;;;;4214335;28;20048;-60
2023/06/10 07:09:37;;;;;;;8.38;3.45;;;24.50;90.60;;;;;;4196190;28;20055;-60
2023/06/10 07:11:39;;;;;;;7.50;3.63;;;24.80;90.50;;;;;;4213013;28;20482;-62
2023/06/10 07:13:41;;;;;;;5.30;3.08;;;25.10;90.20;;;;;;4213795;28;20040;-60
2023/06/10 07:15:43;;;;;;;6.40;2.97;;;25.30;89.60;;;;;;4214143;28;20070;-62
2023/06/10 07:17:46;;;;;;;7.03;2.95;;;25.40;89.30;;;;;;4213998;28;20040;-62
2023/06/10 07:19:48;;;;;;;5.55;3.08;;;25.40;89.30;;;;;;4214339;28;20044;-62
2023/06/10 07:21:53;;;;;;;8.48;2.95;;;25.40;89.70;;;;;;4213405;28;20048;-60
2023/06/10 07:23:55;;;;;;;6.00;2.85;;;25.40;89.70;;;;;;4214254;28;20454;-60
2023/06/10 07:25:58;;;;;;;8.57;3.00;;;25.60;89.80;;;;;;4213903;28;20101;-59
2023/06/10 07:28:00;;;;;;;6.70;2.72;;;25.80;89.30;;;;;;4204019;28;20048;-59
2023/06/10 07:30:02;;;;;;;6.18;2.80;;;25.80;88.50;;;;;;4213831;28;20135;-58
2023/06/10 07:32:05;;;;;;;7.63;3.10;;;25.90;88.70;;;;;;4194695;28;20059;-61
2023/06/10 07:34:07;;;;;;;4.18;2.97;;;26.00;88.50;;;;;;4213787;28;20043;-62
2023/06/10 07:36:09;;;;;;;4.72;2.92;;;26.00;88.30;;;;;;4213830;28;20118;-63
2023/06/10 07:38:13;;;;;;;5.85;2.80;;;26.00;87.60;;;;;;4213874;28;20466;-62
2023/06/10 07:40:15;;;;;;;4.93;2.80;;;26.10;88.00;;;;;;4213848;28;20052;-60
2023/06/10 07:42:17;;;;;;;8.95;2.92;;;26.10;87.10;;;;;;4212640;28;20051;-60
2023/06/10 07:44:19;;;;;;;3.90;2.80;;;26.10;87.10;;;;;;4213661;28;20048;-59
2023/06/10 07:46:22;;;;;;;5.45;2.90;;;26.30;87.20;;;;;;4213703;28;20054;-59
2023/06/10 07:48:24;;;;;;;4.53;2.70;;;26.30;86.90;;;;;;4213752;28;20430;-59
2023/06/10 07:50:26;;;;;;;6.72;2.88;;;26.40;86.90;;;;;;4213285;28;20039;-60
2023/06/10 07:52:28;;;;;;;5.20;2.97;;;26.50;86.60;;;;;;4212238;28;20203;-61
2023/06/10 07:54:32;;;;;;;4.55;2.80;;;26.60;86.30;;;;;;4213840;28;20067;-62
2023/06/10 07:56:34;;;;;;;4.97;2.85;;;26.60;86.30;;;;;;4213567;28;20119;-60
2023/06/10 07:58:36;;;;;;;6.88;2.78;;;26.80;86.10;;;;;;4213603;28;20118;-60
2023/06/10 08:00:38;;;;;;;9.40;2.72;;;26.80;85.70;;;;;;4212430;28;20040;-60
2023/06/10 08:02:40;;;;;;;7.85;2.78;;;26.90;85.80;;;;;;4213275;28;20044;-59
2023/06/10 08:04:42;;;;;;;6.13;2.85;;;26.80;85.60;;;;;;4213706;28;20127;-62
2023/06/10 08:06:45;;;;;;;11.23;2.65;;;27.00;85.30;;;;;;4213295;28;20055;-59
2023/06/10 08:08:47;;;;;;;6.63;2.60;;;26.90;85.30;;;;;;4213613;28;20076;-63
2023/06/10 08:10:50;;;;;;;6.72;2.80;;;26.90;84.60;;;;;;4212474;28;20075;-61
2023/06/10 08:12:52;;;;;;;3.83;2.83;;;26.70;84.90;;;;;;4213179;28;20361;-60
2023/06/10 08:14:54;;;;;;;4.82;3.08;;;26.90;85.20;;;;;;4213505;28;20291;-60
2023/06/10 08:16:57;;;;;;;8.15;2.63;;;26.90;85.10;;;;;;4213409;28;20074;-60
2023/06/10 08:18:59;;;;;;;7.05;3.17;;;26.80;84.60;;;;;;4213227;28;20044;-60
2023/06/10 08:21:01;;;;;;;8.70;3.80;;;26.80;84.50;;;;;;4212518;28;20264;-58
2023/06/10 08:23:03;;;;;;;7.60;3.22;;;26.90;85.10;;;;;;4195267;28;20136;-59
2023/06/10 08:25:06;;;;;;;5.32;2.70;;;26.70;85.50;;;;;;4213015;28;20120;-59
2023/06/10 08:27:10;;;;;;;6.65;3.13;;;26.80;85.80;;;;;;4213103;28;20048;-61
2023/06/10 08:29:12;;;;;;;5.88;2.70;;;27.00;85.70;;;;;;4196870;28;20044;-61
2023/06/10 08:31:14;;;;;;;8.07;3.65;;;27.20;85.20;;;;;;4195579;28;20347;-61
2023/06/10 08:33:16;;;;;;;7.28;2.50;;;27.30;84.90;;;;;;4196361;28;20135;-60
2023/06/10 08:35:19;;;;;;;5.40;3.20;;;27.40;84.20;;;;;;4196460;28;20059;-61
2023/06/10 08:37:21;;;;;;;5.70;3.47;;;27.50;84.10;;;;;;4196329;28;20479;-61
2023/06/10 08:39:24;;;;;;;5.72;3.38;;;27.30;83.80;;;;;;4195986;28;20051;-60
2023/06/10 08:41:28;;;;;;;7.18;3.05;;;27.20;84.20;;;;;;4195328;28;20069;-61
2023/06/10 08:43:36;;;;;;;4.10;2.63;;;27.20;84.50;;;;;;4196262;28;20056;-59
2023/06/10 08:45:42;;;;;;;9.43;2.78;;;27.30;84.10;;;;;;4196635;28;20091;-59
2023/06/10 08:47:48;;;;;;;4.07;2.60;;;27.50;84.00;;;;;;4196421;28;20055;-59
2023/06/10 08:49:56;;;;;;;3.70;2.72;;;27.40;83.50;;;;;;4196295;28;20044;-59
2023/06/10 08:52:00;;;;;;;5.63;3.22;;;27.70;83.60;;;;;;4195378;28;20486;-58
2023/06/10 08:54:09;;;;;;;5.30;3.00;;;27.70;83.30;;;;;;4195945;28;20052;-58
2023/06/10 08:56:12;;;;;;;12.88;4.05;;;27.50;83.30;;;;;;4196378;28;20139;-58
2023/06/10 08:58:14;;;;;;;8.82;4.20;;;27.40;83.00;;;;;;4196204;28;20083;-60
2023/06/10 09:00:18;;;;;;;10.77;4.15;;;27.40;82.80;;;;;;4207843;28;20386;-62
2023/06/10 09:02:21;;;;;;;3.83;2.95;;;27.40;83.10;;;;;;4211887;28;20417;-62
2023/06/10 09:04:24;;;;;;;6.95;2.85;;;27.60;82.80;;;;;;4215935;28;20063;-59
2023/06/10 09:06:26;;;;;;;7.43;3.33;;;27.80;82.70;;;;;;4215908;28;20052;-59
2023/06/10 09:08:29;;;;;;;5.13;2.83;;;27.70;82.60;;;;;;4215753;28;20044;-59
2023/06/10 09:10:32;;;;;;;8.07;3.15;;;27.90;82.50;;;;;;4216265;28;20478;-60
2023/06/10 09:12:35;;;;;;;5.60;3.15;;;27.90;82.20;;;;;;4215067;28;20118;-60
2023/06/10 09:14:37;;;;;;;7.72;2.70;;;27.80;82.30;;;;;;4216070;28;20120;-59
2023/06/10 09:16:41;;;;;;;5.80;3.00;;;27.90;82.30;;;;;;4215600;28;20048;-61
2023/06/10 09:18:44;;;;;;;4.65;2.92;;;27.90;81.70;;;;;;4215901;28;20044;-61
2023/06/10 09:20:46;;;;;;;6.30;3.00;;;27.90;82.00;;;;;;4215500;28;20119;-62
2023/06/10 09:22:49;;;;;;;5.25;2.70;;;28.10;82.00;;;;;;4215289;28;20482;-62
2023/06/10 09:24:51;;;;;;;5.55;3.55;;;28.20;81.70;;;;;;4215280;28;20072;-60
2023/06/10 09:27:02;;;;;;;5.82;2.85;;;28.20;81.30;;;;;;4216022;28;20071;-59
2023/06/10 09:29:05;;;;;;;7.93;3.00;;;28.20;81.80;;;;;;4215764;28;20048;-59
2023/06/10 09:31:08;;;;;;;8.35;3.65;;;28.30;80.50;;;;;;4214737;28;20529;-60
2023/06/10 09:33:15;;;;;;;5.93;3.58;;;28.20;80.10;;;;;;4215900;28;20474;-59
2023/06/10 09:35:17;;;;;;;11.15;3.75;;;28.20;79.50;;;;;;4215789;28;20409;-60
2023/06/10 09:37:22;;;;;;;10.48;4.45;;;28.10;79.40;;;;;;4215636;28;20104;-59
2023/06/10 09:39:25;;;;;;;10.60;4.80;;;28.10;80.20;;;;;;4215521;28;20474;-62
2023/06/10 09:41:32;;;;;;;8.38;3.80;;;28.30;80.10;;;;;;4196794;28;20045;-62
2023/06/10 09:43:40;;;;;;;8.32;3.80;;;28.40;79.70;;;;;;4215416;28;20055;-62
2023/06/10 09:45:43;;;;;;;7.35;4.03;;;28.50;78.50;;;;;;4215546;28;20047;-61
2023/06/10 09:47:46;;;;;;;6.35;3.03;;;28.50;78.80;;;;;;4215615;28;20136;-59
2023/06/10 09:49:50;;;;;;;7.95;2.30;;;28.50;78.30;;;;;;4215350;28;20047;-59
2023/06/10 09:51:53;;;;;;;9.45;2.40;;;28.60;78.50;;;;;;4213992;28;20373;-59
2023/06/10 09:53:55;;;;;;;5.93;2.65;;;28.60;78.60;;;;;;4215613;28;20052;-62
2023/06/10 09:55:58;;;;;;;7.05;3.00;;;28.70;77.90;;;;;;4215448;28;20050;-61
2023/06/10 09:58:00;;;;;;;7.70;3.22;;;28.80;78.20;;;;;;4215852;28;20044;-61
2023/06/10 10:00:05;;;;;;;3.90;2.50;;;29.00;77.90;;;;;;4215112;28;20095;-59
2023/06/10 10:02:14;;;;;;;4.25;2.45;;;28.90;77.30;;;;;;4214191;28;20130;-59
2023/06/10 10:04:24;;;;;;;3.90;2.30;;;28.90;77.00;;;;;;4215071;28;20409;-58
2023/06/10 10:06:29;;;;;;;5.50;2.33;;;29.00;76.20;;;;;;4213079;28;20076;-61
2023/06/10 10:08:31;;;;;;;6.38;2.60;;;29.10;76.40;;;;;;4215098;28;20068;-60
2023/06/10 10:10:33;;;;;;;3.33;2.42;;;29.20;77.20;;;;;;4214914;28;20051;-61
2023/06/10 10:12:37;;;;;;;8.18;2.60;;;29.10;75.80;;;;;;4214273;28;20477;-60
2023/06/10 10:14:45;;;;;;;6.10;2.95;;;29.10;76.80;;;;;;4214198;28;20074;-61
2023/06/10 10:16:49;;;;;;;5.75;2.55;;;29.20;76.10;;;;;;4214965;28;20143;-60
2023/06/10 10:18:54;;;;;;;9.10;2.60;;;29.40;76.50;;;;;;4197135;28;20509;-58
2023/06/10 10:21:00;;;;;;;4.95;2.60;;;29.50;75.70;;;;;;4214388;28;20048;-59
2023/06/10 10:23:06;;;;;;;6.10;2.78;;;29.50;75.50;;;;;;4214382;28;20051;-58
2023/06/10 10:25:12;;;;;;;5.80;2.53;;;29.50;75.10;;;;;;4214743;28;20044;-58
2023/06/10 10:27:20;;;;;;;7.43;2.42;;;29.70;74.50;;;;;;4214417;28;20043;-58
2023/06/10 10:29:29;;;;;;;5.57;2.30;;;29.60;74.50;;;;;;4214663;28;20535;-57
2023/06/10 10:31:34;;;;;;;5.60;2.60;;;29.60;74.60;;;;;;4213762;28;20452;-58
2023/06/10 10:33:44;;;;;;;4.45;2.35;;;29.70;73.60;;;;;;4214692;28;20487;-63
2023/06/10 10:35:46;;;;;;;14.43;2.70;;;29.80;73.80;;;;;;4214266;28;20039;-58
2023/06/10 10:37:49;;;;;;;7.50;2.20;;;30.00;73.80;;;;;;4214139;28;20050;-61
2023/06/10 10:39:53;;;;;;;4.28;2.67;;;30.10;72.00;;;;;;4214555;28;20048;-60